sensor_id;sensor_type;location;lat;lon;timestamp;P1;durP1;ratioP1;P2;durP2;ratioP2
13698;SDS011;6921;53.642;9.956;2022-11-14T00:00:39;35.40;;;21.53;;
13698;SDS011;6921;53.642;9.956;2022-11-14T00:02:42;29.27;;;19.73;;
13698;SDS011;6921;53.642;9.956;2022-11-14T00:04:47;32.80;;;20.87;;
13698;SDS011;6921;53.642;9.956;2022-11-14T00:06:50;29.63;;;20.53;;
13698;SDS011;6921;53.642;9.956;2022-11-14T00:08:54;30.20;;;20.67;;
13698;SDS011;6921;53.642;9.956;2022-11-14T00:10:57;33.57;;;21.37;;
13698;SDS011;6921;53.642;9.956;2022-11-14T00:13:00;29.87;;;20.97;;
13698;SDS011;6921;53.642;9.956;2022-11-14T00:15:04;34.97;;;20.23;;
13698;SDS011;6921;53.642;9.956;2022-11-14T00:17:09;30.67;;;21.30;;
13698;SDS011;6921;53.642;9.956;2022-11-14T00:19:12;32.07;;;20.93;;
13698;SDS011;6921;53.642;9.956;2022-11-14T00:21:17;30.60;;;21.87;;
13698;SDS011;6921;53.642;9.956;2022-11-14T00:23:20;30.77;;;20.43;;
13698;SDS011;6921;53.642;9.956;2022-11-14T00:25:23;30.90;;;21.00;;
13698;SDS011;6921;53.642;9.956;2022-11-14T00:27:27;30.67;;;20.93;;
13698;SDS011;6921;53.642;9.956;2022-11-14T00:29:31;33.27;;;21.80;;
13698;SDS011;6921;53.642;9.956;2022-11-14T00:31:34;33.60;;;21.50;;
13698;SDS011;6921;53.642;9.956;2022-11-14T00:33:37;31.50;;;21.87;;
13698;SDS011;6921;53.642;9.956;2022-11-14T00:35:48;34.07;;;22.07;;
13698;SDS011;6921;53.642;9.956;2022-11-14T00:37:53;30.83;;;20.90;;
13698;SDS011;6921;53.642;9.956;2022-11-14T00:39:56;31.73;;;20.97;;
13698;SDS011;6921;53.642;9.956;2022-11-14T00:41:59;32.10;;;20.20;;
13698;SDS011;6921;53.642;9.956;2022-11-14T00:44:03;31.60;;;19.90;;
13698;SDS011;6921;53.642;9.956;2022-11-14T00:46:06;31.90;;;20.93;;
13698;SDS011;6921;53.642;9.956;2022-11-14T00:48:09;31.57;;;20.57;;
13698;SDS011;6921;53.642;9.956;2022-11-14T00:50:13;31.03;;;20.37;;
13698;SDS011;6921;53.642;9.956;2022-11-14T00:52:16;34.97;;;21.47;;
13698;SDS011;6921;53.642;9.956;2022-11-14T00:54:21;30.37;;;20.93;;
13698;SDS011;6921;53.642;9.956;2022-11-14T00:56:26;30.67;;;20.73;;
13698;SDS011;6921;53.642;9.956;2022-11-14T00:58:30;31.73;;;20.87;;
13698;SDS011;6921;53.642;9.956;2022-11-14T01:00:33;31.87;;;20.90;;
13698;SDS011;6921;53.642;9.956;2022-11-14T01:02:37;35.50;;;20.87;;
13698;SDS011;6921;53.642;9.956;2022-11-14T01:04:41;32.17;;;21.87;;
13698;SDS011;6921;53.642;9.956;2022-11-14T01:06:44;34.43;;;22.77;;
13698;SDS011;6921;53.642;9.956;2022-11-14T01:08:48;32.93;;;20.23;;
13698;SDS011;6921;53.642;9.956;2022-11-14T01:10:53;34.20;;;22.03;;
13698;SDS011;6921;53.642;9.956;2022-11-14T01:12:57;33.43;;;21.70;;
13698;SDS011;6921;53.642;9.956;2022-11-14T01:15:00;32.90;;;20.73;;
13698;SDS011;6921;53.642;9.956;2022-11-14T01:17:03;35.57;;;22.30;;
13698;SDS011;6921;53.642;9.956;2022-11-14T01:19:07;36.00;;;22.40;;
13698;SDS011;6921;53.642;9.956;2022-11-14T01:21:11;31.70;;;21.23;;
13698;SDS011;6921;53.642;9.956;2022-11-14T01:23:15;33.97;;;21.13;;
13698;SDS011;6921;53.642;9.956;2022-11-14T01:25:18;35.00;;;21.43;;
13698;SDS011;6921;53.642;9.956;2022-11-14T01:27:23;35.80;;;22.33;;
13698;SDS011;6921;53.642;9.956;2022-11-14T01:29:26;33.70;;;20.90;;
13698;SDS011;6921;53.642;9.956;2022-11-14T01:31:30;32.00;;;20.90;;
13698;SDS011;6921;53.642;9.956;2022-11-14T01:33:33;34.70;;;21.53;;
13698;SDS011;6921;53.642;9.956;2022-11-14T01:35:37;35.33;;;21.60;;
13698;SDS011;6921;53.642;9.956;2022-11-14T01:37:40;34.07;;;21.70;;
13698;SDS011;6921;53.642;9.956;2022-11-14T01:39:43;32.83;;;21.40;;
13698;SDS011;6921;53.642;9.956;2022-11-14T01:41:46;36.83;;;22.33;;
13698;SDS011;6921;53.642;9.956;2022-11-14T01:43:51;36.67;;;21.43;;
13698;SDS011;6921;53.642;9.956;2022-11-14T01:45:56;32.93;;;22.40;;
13698;SDS011;6921;53.642;9.956;2022-11-14T01:48:00;39.20;;;22.97;;
13698;SDS011;6921;53.642;9.956;2022-11-14T01:50:04;36.33;;;22.00;;
13698;SDS011;6921;53.642;9.956;2022-11-14T01:52:08;33.77;;;22.00;;
13698;SDS011;6921;53.642;9.956;2022-11-14T01:54:15;36.00;;;21.80;;
13698;SDS011;6921;53.642;9.956;2022-11-14T01:56:20;34.60;;;22.13;;
13698;SDS011;6921;53.642;9.956;2022-11-14T01:58:24;37.03;;;23.77;;
13698;SDS011;6921;53.642;9.956;2022-11-14T02:00:29;32.53;;;22.00;;
13698;SDS011;6921;53.642;9.956;2022-11-14T02:02:33;33.17;;;21.87;;
13698;SDS011;6921;53.642;9.956;2022-11-14T02:04:37;37.23;;;22.07;;
13698;SDS011;6921;53.642;9.956;2022-11-14T02:06:42;38.03;;;23.43;;
13698;SDS011;6921;53.642;9.956;2022-11-14T02:08:45;37.10;;;22.93;;
13698;SDS011;6921;53.642;9.956;2022-11-14T02:10:49;37.13;;;21.90;;
13698;SDS011;6921;53.642;9.956;2022-11-14T02:12:53;35.37;;;21.83;;
13698;SDS011;6921;53.642;9.956;2022-11-14T02:14:56;35.67;;;22.23;;
13698;SDS011;6921;53.642;9.956;2022-11-14T02:17:01;35.93;;;23.13;;
13698;SDS011;6921;53.642;9.956;2022-11-14T02:19:28;38.33;;;22.93;;
13698;SDS011;6921;53.642;9.956;2022-11-14T02:21:43;36.13;;;22.53;;
13698;SDS011;6921;53.642;9.956;2022-11-14T02:23:46;36.83;;;22.67;;
13698;SDS011;6921;53.642;9.956;2022-11-14T02:25:49;37.67;;;23.03;;
13698;SDS011;6921;53.642;9.956;2022-11-14T02:27:53;39.90;;;23.93;;
13698;SDS011;6921;53.642;9.956;2022-11-14T02:30:02;37.93;;;21.73;;
13698;SDS011;6921;53.642;9.956;2022-11-14T02:32:07;38.33;;;22.47;;
13698;SDS011;6921;53.642;9.956;2022-11-14T02:34:11;37.87;;;22.40;;
13698;SDS011;6921;53.642;9.956;2022-11-14T02:36:17;41.27;;;22.77;;
13698;SDS011;6921;53.642;9.956;2022-11-14T02:38:21;37.43;;;21.80;;
13698;SDS011;6921;53.642;9.956;2022-11-14T02:40:25;36.47;;;22.23;;
13698;SDS011;6921;53.642;9.956;2022-11-14T02:42:28;38.90;;;23.33;;
13698;SDS011;6921;53.642;9.956;2022-11-14T02:44:31;37.90;;;23.13;;
13698;SDS011;6921;53.642;9.956;2022-11-14T02:46:35;39.10;;;23.67;;
13698;SDS011;6921;53.642;9.956;2022-11-14T02:48:38;36.17;;;23.50;;
13698;SDS011;6921;53.642;9.956;2022-11-14T02:50:42;38.50;;;24.20;;
13698;SDS011;6921;53.642;9.956;2022-11-14T02:52:45;33.13;;;22.30;;
13698;SDS011;6921;53.642;9.956;2022-11-14T02:54:50;41.73;;;23.73;;
13698;SDS011;6921;53.642;9.956;2022-11-14T02:56:54;40.27;;;23.43;;
13698;SDS011;6921;53.642;9.956;2022-11-14T02:58:58;38.23;;;23.53;;
13698;SDS011;6921;53.642;9.956;2022-11-14T03:01:01;36.67;;;22.97;;
13698;SDS011;6921;53.642;9.956;2022-11-14T03:03:20;36.60;;;22.43;;
13698;SDS011;6921;53.642;9.956;2022-11-14T03:05:24;40.07;;;24.00;;
13698;SDS011;6921;53.642;9.956;2022-11-14T03:07:27;38.03;;;24.20;;
13698;SDS011;6921;53.642;9.956;2022-11-14T03:09:30;38.30;;;22.93;;
13698;SDS011;6921;53.642;9.956;2022-11-14T03:11:35;36.00;;;23.30;;
13698;SDS011;6921;53.642;9.956;2022-11-14T03:13:38;36.37;;;22.57;;
13698;SDS011;6921;53.642;9.956;2022-11-14T03:15:41;38.67;;;23.70;;
13698;SDS011;6921;53.642;9.956;2022-11-14T03:17:45;39.27;;;23.90;;
13698;SDS011;6921;53.642;9.956;2022-11-14T03:19:48;39.07;;;24.40;;
13698;SDS011;6921;53.642;9.956;2022-11-14T03:21:51;36.13;;;23.27;;
13698;SDS011;6921;53.642;9.956;2022-11-14T03:23:55;40.10;;;24.40;;
13698;SDS011;6921;53.642;9.956;2022-11-14T03:25:58;36.43;;;23.40;;
13698;SDS011;6921;53.642;9.956;2022-11-14T03:28:04;40.60;;;24.10;;
13698;SDS011;6921;53.642;9.956;2022-11-14T03:30:09;39.23;;;23.60;;
13698;SDS011;6921;53.642;9.956;2022-11-14T03:32:12;38.47;;;23.17;;
13698;SDS011;6921;53.642;9.956;2022-11-14T03:34:15;38.87;;;24.30;;
13698;SDS011;6921;53.642;9.956;2022-11-14T03:36:19;40.10;;;23.40;;
13698;SDS011;6921;53.642;9.956;2022-11-14T03:38:22;40.23;;;24.03;;
13698;SDS011;6921;53.642;9.956;2022-11-14T03:40:26;42.40;;;24.03;;
13698;SDS011;6921;53.642;9.956;2022-11-14T03:42:31;41.30;;;24.83;;
13698;SDS011;6921;53.642;9.956;2022-11-14T03:44:36;39.57;;;24.47;;
13698;SDS011;6921;53.642;9.956;2022-11-14T03:46:40;41.90;;;24.77;;
13698;SDS011;6921;53.642;9.956;2022-11-14T03:48:43;40.33;;;24.07;;
13698;SDS011;6921;53.642;9.956;2022-11-14T03:50:46;39.30;;;23.53;;
13698;SDS011;6921;53.642;9.956;2022-11-14T03:52:49;36.80;;;23.57;;
13698;SDS011;6921;53.642;9.956;2022-11-14T03:54:53;40.53;;;24.17;;
13698;SDS011;6921;53.642;9.956;2022-11-14T03:56:56;38.77;;;25.17;;
13698;SDS011;6921;53.642;9.956;2022-11-14T03:58:59;39.77;;;24.27;;
13698;SDS011;6921;53.642;9.956;2022-11-14T04:01:04;38.53;;;23.20;;
13698;SDS011;6921;53.642;9.956;2022-11-14T04:03:07;42.27;;;24.63;;
13698;SDS011;6921;53.642;9.956;2022-11-14T04:05:11;41.37;;;24.60;;
13698;SDS011;6921;53.642;9.956;2022-11-14T04:07:14;44.10;;;25.93;;
13698;SDS011;6921;53.642;9.956;2022-11-14T04:09:17;40.67;;;25.50;;
13698;SDS011;6921;53.642;9.956;2022-11-14T04:11:21;39.40;;;24.50;;
13698;SDS011;6921;53.642;9.956;2022-11-14T04:13:24;42.83;;;24.87;;
13698;SDS011;6921;53.642;9.956;2022-11-14T04:15:27;39.03;;;23.60;;
13698;SDS011;6921;53.642;9.956;2022-11-14T04:17:32;39.60;;;23.97;;
13698;SDS011;6921;53.642;9.956;2022-11-14T04:19:39;39.13;;;24.27;;
13698;SDS011;6921;53.642;9.956;2022-11-14T04:21:43;37.97;;;23.87;;
13698;SDS011;6921;53.642;9.956;2022-11-14T04:23:46;40.77;;;24.47;;
13698;SDS011;6921;53.642;9.956;2022-11-14T04:25:50;38.27;;;24.37;;
13698;SDS011;6921;53.642;9.956;2022-11-14T04:27:53;39.87;;;25.47;;
13698;SDS011;6921;53.642;9.956;2022-11-14T04:29:56;41.03;;;24.00;;
13698;SDS011;6921;53.642;9.956;2022-11-14T04:31:59;37.27;;;23.17;;
13698;SDS011;6921;53.642;9.956;2022-11-14T04:34:04;38.80;;;23.47;;
13698;SDS011;6921;53.642;9.956;2022-11-14T04:36:07;38.00;;;23.47;;
13698;SDS011;6921;53.642;9.956;2022-11-14T04:38:11;37.07;;;22.70;;
13698;SDS011;6921;53.642;9.956;2022-11-14T04:40:14;39.87;;;23.43;;
13698;SDS011;6921;53.642;9.956;2022-11-14T04:42:18;39.10;;;22.47;;
13698;SDS011;6921;53.642;9.956;2022-11-14T04:44:21;40.43;;;23.97;;
13698;SDS011;6921;53.642;9.956;2022-11-14T04:46:24;42.80;;;24.47;;
13698;SDS011;6921;53.642;9.956;2022-11-14T04:48:27;37.37;;;22.87;;
13698;SDS011;6921;53.642;9.956;2022-11-14T04:50:32;39.87;;;23.70;;
13698;SDS011;6921;53.642;9.956;2022-11-14T04:52:36;38.10;;;23.43;;
13698;SDS011;6921;53.642;9.956;2022-11-14T04:54:39;43.27;;;24.97;;
13698;SDS011;6921;53.642;9.956;2022-11-14T04:56:42;41.30;;;23.80;;
13698;SDS011;6921;53.642;9.956;2022-11-14T04:58:46;40.00;;;23.87;;
13698;SDS011;6921;53.642;9.956;2022-11-14T05:00:49;40.37;;;23.83;;
13698;SDS011;6921;53.642;9.956;2022-11-14T05:02:52;38.50;;;22.87;;
13698;SDS011;6921;53.642;9.956;2022-11-14T05:04:55;40.13;;;24.30;;
13698;SDS011;6921;53.642;9.956;2022-11-14T05:07:00;43.13;;;24.20;;
13698;SDS011;6921;53.642;9.956;2022-11-14T05:09:03;38.90;;;23.90;;
13698;SDS011;6921;53.642;9.956;2022-11-14T05:11:11;36.83;;;22.13;;
13698;SDS011;6921;53.642;9.956;2022-11-14T05:13:15;40.47;;;25.27;;
13698;SDS011;6921;53.642;9.956;2022-11-14T05:15:18;39.13;;;24.10;;
13698;SDS011;6921;53.642;9.956;2022-11-14T05:17:21;42.67;;;25.77;;
13698;SDS011;6921;53.642;9.956;2022-11-14T05:19:24;38.63;;;23.97;;
13698;SDS011;6921;53.642;9.956;2022-11-14T05:21:28;38.53;;;24.80;;
13698;SDS011;6921;53.642;9.956;2022-11-14T05:23:32;41.73;;;24.43;;
13698;SDS011;6921;53.642;9.956;2022-11-14T05:25:36;41.07;;;23.87;;
13698;SDS011;6921;53.642;9.956;2022-11-14T05:27:39;39.73;;;23.30;;
13698;SDS011;6921;53.642;9.956;2022-11-14T05:29:44;40.13;;;24.73;;
13698;SDS011;6921;53.642;9.956;2022-11-14T05:31:47;40.13;;;24.20;;
13698;SDS011;6921;53.642;9.956;2022-11-14T05:33:50;38.50;;;23.80;;
13698;SDS011;6921;53.642;9.956;2022-11-14T05:35:54;40.13;;;24.90;;
13698;SDS011;6921;53.642;9.956;2022-11-14T05:37:59;40.80;;;24.77;;
13698;SDS011;6921;53.642;9.956;2022-11-14T05:40:04;46.83;;;24.97;;
13698;SDS011;6921;53.642;9.956;2022-11-14T05:42:07;36.37;;;23.70;;
13698;SDS011;6921;53.642;9.956;2022-11-14T05:44:11;44.37;;;25.27;;
13698;SDS011;6921;53.642;9.956;2022-11-14T05:46:14;40.27;;;23.83;;
13698;SDS011;6921;53.642;9.956;2022-11-14T05:48:18;41.00;;;24.83;;
13698;SDS011;6921;53.642;9.956;2022-11-14T05:50:21;40.70;;;24.33;;
13698;SDS011;6921;53.642;9.956;2022-11-14T05:52:24;38.83;;;23.30;;
13698;SDS011;6921;53.642;9.956;2022-11-14T05:54:29;37.97;;;23.77;;
13698;SDS011;6921;53.642;9.956;2022-11-14T05:56:33;38.97;;;24.80;;
13698;SDS011;6921;53.642;9.956;2022-11-14T05:58:37;38.93;;;24.03;;
13698;SDS011;6921;53.642;9.956;2022-11-14T06:00:40;46.27;;;25.40;;
13698;SDS011;6921;53.642;9.956;2022-11-14T06:02:52;42.93;;;25.03;;
13698;SDS011;6921;53.642;9.956;2022-11-14T06:04:55;40.93;;;24.43;;
13698;SDS011;6921;53.642;9.956;2022-11-14T06:06:59;41.70;;;25.40;;
13698;SDS011;6921;53.642;9.956;2022-11-14T06:09:02;42.87;;;25.63;;
13698;SDS011;6921;53.642;9.956;2022-11-14T06:11:06;42.80;;;24.90;;
13698;SDS011;6921;53.642;9.956;2022-11-14T06:13:11;40.53;;;23.70;;
13698;SDS011;6921;53.642;9.956;2022-11-14T06:15:15;43.77;;;26.20;;
13698;SDS011;6921;53.642;9.956;2022-11-14T06:17:19;43.70;;;25.37;;
13698;SDS011;6921;53.642;9.956;2022-11-14T06:19:22;43.23;;;25.30;;
13698;SDS011;6921;53.642;9.956;2022-11-14T06:21:25;44.07;;;25.07;;
13698;SDS011;6921;53.642;9.956;2022-11-14T06:23:29;44.40;;;25.90;;
13698;SDS011;6921;53.642;9.956;2022-11-14T06:25:32;51.73;;;31.57;;
13698;SDS011;6921;53.642;9.956;2022-11-14T06:27:35;45.77;;;28.00;;
13698;SDS011;6921;53.642;9.956;2022-11-14T06:29:40;43.07;;;25.23;;
13698;SDS011;6921;53.642;9.956;2022-11-14T06:31:43;47.87;;;26.53;;
13698;SDS011;6921;53.642;9.956;2022-11-14T06:33:47;43.47;;;26.03;;
13698;SDS011;6921;53.642;9.956;2022-11-14T06:35:50;45.60;;;26.00;;
13698;SDS011;6921;53.642;9.956;2022-11-14T06:37:58;44.30;;;25.33;;
13698;SDS011;6921;53.642;9.956;2022-11-14T06:40:02;49.97;;;28.73;;
13698;SDS011;6921;53.642;9.956;2022-11-14T06:42:05;41.33;;;25.10;;
13698;SDS011;6921;53.642;9.956;2022-11-14T06:44:09;40.90;;;25.17;;
13698;SDS011;6921;53.642;9.956;2022-11-14T06:46:21;38.37;;;24.90;;
13698;SDS011;6921;53.642;9.956;2022-11-14T06:48:25;41.70;;;25.17;;
13698;SDS011;6921;53.642;9.956;2022-11-14T06:50:28;41.13;;;24.97;;
13698;SDS011;6921;53.642;9.956;2022-11-14T06:52:31;39.80;;;24.30;;
13698;SDS011;6921;53.642;9.956;2022-11-14T06:54:35;42.43;;;24.67;;
13698;SDS011;6921;53.642;9.956;2022-11-14T06:56:40;40.03;;;24.13;;
13698;SDS011;6921;53.642;9.956;2022-11-14T06:58:44;41.07;;;24.60;;
13698;SDS011;6921;53.642;9.956;2022-11-14T07:00:48;43.43;;;23.53;;
13698;SDS011;6921;53.642;9.956;2022-11-14T07:02:53;42.60;;;25.50;;
13698;SDS011;6921;53.642;9.956;2022-11-14T07:04:56;42.13;;;25.43;;
13698;SDS011;6921;53.642;9.956;2022-11-14T07:06:59;42.30;;;25.93;;
13698;SDS011;6921;53.642;9.956;2022-11-14T07:09:03;52.00;;;28.77;;
13698;SDS011;6921;53.642;9.956;2022-11-14T07:11:07;49.97;;;26.70;;
13698;SDS011;6921;53.642;9.956;2022-11-14T07:13:10;46.67;;;27.10;;
13698;SDS011;6921;53.642;9.956;2022-11-14T07:15:14;47.97;;;26.50;;
13698;SDS011;6921;53.642;9.956;2022-11-14T07:17:17;45.67;;;27.13;;
13698;SDS011;6921;53.642;9.956;2022-11-14T07:19:22;45.20;;;26.90;;
13698;SDS011;6921;53.642;9.956;2022-11-14T07:21:25;46.70;;;27.40;;
13698;SDS011;6921;53.642;9.956;2022-11-14T07:23:29;45.00;;;27.00;;
13698;SDS011;6921;53.642;9.956;2022-11-14T07:25:32;48.37;;;27.20;;
13698;SDS011;6921;53.642;9.956;2022-11-14T07:27:36;51.90;;;27.60;;
13698;SDS011;6921;53.642;9.956;2022-11-14T07:29:39;47.00;;;27.33;;
13698;SDS011;6921;53.642;9.956;2022-11-14T07:31:42;48.97;;;25.27;;
13698;SDS011;6921;53.642;9.956;2022-11-14T07:33:46;46.90;;;26.27;;
13698;SDS011;6921;53.642;9.956;2022-11-14T07:35:50;42.53;;;24.07;;
13698;SDS011;6921;53.642;9.956;2022-11-14T07:37:59;43.13;;;24.23;;
13698;SDS011;6921;53.642;9.956;2022-11-14T07:40:02;44.43;;;25.90;;
13698;SDS011;6921;53.642;9.956;2022-11-14T07:42:09;44.87;;;26.07;;
13698;SDS011;6921;53.642;9.956;2022-11-14T07:44:12;48.40;;;26.10;;
13698;SDS011;6921;53.642;9.956;2022-11-14T07:46:16;47.77;;;29.73;;
13698;SDS011;6921;53.642;9.956;2022-11-14T07:48:20;50.83;;;27.50;;
13698;SDS011;6921;53.642;9.956;2022-11-14T07:50:23;49.60;;;25.23;;
13698;SDS011;6921;53.642;9.956;2022-11-14T07:52:28;48.83;;;27.60;;
13698;SDS011;6921;53.642;9.956;2022-11-14T07:54:31;53.83;;;27.27;;
13698;SDS011;6921;53.642;9.956;2022-11-14T07:56:35;47.33;;;26.33;;
13698;SDS011;6921;53.642;9.956;2022-11-14T07:58:39;46.23;;;26.77;;
13698;SDS011;6921;53.642;9.956;2022-11-14T08:00:42;50.97;;;28.00;;
13698;SDS011;6921;53.642;9.956;2022-11-14T08:02:46;53.27;;;27.83;;
13698;SDS011;6921;53.642;9.956;2022-11-14T08:04:49;49.57;;;26.73;;
13698;SDS011;6921;53.642;9.956;2022-11-14T08:06:55;49.30;;;26.37;;
13698;SDS011;6921;53.642;9.956;2022-11-14T08:09:00;51.20;;;26.90;;
13698;SDS011;6921;53.642;9.956;2022-11-14T08:11:03;44.80;;;26.77;;
13698;SDS011;6921;53.642;9.956;2022-11-14T08:13:09;48.27;;;27.17;;
13698;SDS011;6921;53.642;9.956;2022-11-14T08:15:32;50.30;;;28.17;;
13698;SDS011;6921;53.642;9.956;2022-11-14T08:17:36;50.23;;;28.13;;
13698;SDS011;6921;53.642;9.956;2022-11-14T08:19:39;50.57;;;27.90;;
13698;SDS011;6921;53.642;9.956;2022-11-14T08:21:42;59.00;;;33.23;;
13698;SDS011;6921;53.642;9.956;2022-11-14T08:23:46;52.77;;;28.07;;
13698;SDS011;6921;53.642;9.956;2022-11-14T08:25:50;52.23;;;28.63;;
13698;SDS011;6921;53.642;9.956;2022-11-14T08:27:54;50.87;;;27.63;;
13698;SDS011;6921;53.642;9.956;2022-11-14T08:29:57;48.80;;;26.80;;
13698;SDS011;6921;53.642;9.956;2022-11-14T08:32:00;45.33;;;25.33;;
13698;SDS011;6921;53.642;9.956;2022-11-14T08:34:04;45.33;;;25.03;;
13698;SDS011;6921;53.642;9.956;2022-11-14T08:36:08;51.17;;;25.87;;
13698;SDS011;6921;53.642;9.956;2022-11-14T08:38:12;46.97;;;25.83;;
13698;SDS011;6921;53.642;9.956;2022-11-14T08:40:16;50.33;;;27.57;;
13698;SDS011;6921;53.642;9.956;2022-11-14T08:42:21;48.27;;;27.83;;
13698;SDS011;6921;53.642;9.956;2022-11-14T08:44:24;49.37;;;27.07;;
13698;SDS011;6921;53.642;9.956;2022-11-14T08:46:27;46.67;;;26.10;;
13698;SDS011;6921;53.642;9.956;2022-11-14T08:48:31;46.97;;;25.63;;
13698;SDS011;6921;53.642;9.956;2022-11-14T08:50:35;49.57;;;27.37;;
13698;SDS011;6921;53.642;9.956;2022-11-14T08:52:38;49.77;;;26.73;;
13698;SDS011;6921;53.642;9.956;2022-11-14T08:54:41;46.50;;;26.80;;
13698;SDS011;6921;53.642;9.956;2022-11-14T08:56:44;44.97;;;25.93;;
13698;SDS011;6921;53.642;9.956;2022-11-14T08:58:49;47.53;;;26.80;;
13698;SDS011;6921;53.642;9.956;2022-11-14T09:00:52;48.57;;;26.90;;
13698;SDS011;6921;53.642;9.956;2022-11-14T09:02:56;46.17;;;25.90;;
13698;SDS011;6921;53.642;9.956;2022-11-14T09:04:59;50.07;;;26.70;;
13698;SDS011;6921;53.642;9.956;2022-11-14T09:07:02;49.70;;;26.60;;
13698;SDS011;6921;53.642;9.956;2022-11-14T09:09:06;48.70;;;26.93;;
13698;SDS011;6921;53.642;9.956;2022-11-14T09:11:09;48.30;;;26.77;;
13698;SDS011;6921;53.642;9.956;2022-11-14T09:13:15;47.80;;;26.30;;
13698;SDS011;6921;53.642;9.956;2022-11-14T09:15:20;47.83;;;26.87;;
13698;SDS011;6921;53.642;9.956;2022-11-14T09:17:25;51.77;;;28.67;;
13698;SDS011;6921;53.642;9.956;2022-11-14T09:19:28;47.70;;;26.00;;
13698;SDS011;6921;53.642;9.956;2022-11-14T09:21:32;53.33;;;28.37;;
13698;SDS011;6921;53.642;9.956;2022-11-14T09:23:35;46.17;;;25.43;;
13698;SDS011;6921;53.642;9.956;2022-11-14T09:25:38;46.37;;;24.87;;
13698;SDS011;6921;53.642;9.956;2022-11-14T09:27:42;47.13;;;26.23;;
13698;SDS011;6921;53.642;9.956;2022-11-14T09:29:45;51.40;;;25.87;;
13698;SDS011;6921;53.642;9.956;2022-11-14T09:31:51;47.37;;;24.67;;
13698;SDS011;6921;53.642;9.956;2022-11-14T09:33:55;52.00;;;27.37;;
13698;SDS011;6921;53.642;9.956;2022-11-14T09:35:59;51.40;;;26.00;;
13698;SDS011;6921;53.642;9.956;2022-11-14T09:38:03;48.63;;;25.77;;
13698;SDS011;6921;53.642;9.956;2022-11-14T09:40:09;47.50;;;25.83;;
13698;SDS011;6921;53.642;9.956;2022-11-14T09:42:26;52.13;;;28.07;;
13698;SDS011;6921;53.642;9.956;2022-11-14T09:44:41;50.23;;;26.70;;
13698;SDS011;6921;53.642;9.956;2022-11-14T09:46:51;47.20;;;26.63;;
13698;SDS011;6921;53.642;9.956;2022-11-14T09:48:55;46.53;;;25.77;;
13698;SDS011;6921;53.642;9.956;2022-11-14T09:51:03;49.70;;;25.73;;
13698;SDS011;6921;53.642;9.956;2022-11-14T09:53:09;49.13;;;25.83;;
13698;SDS011;6921;53.642;9.956;2022-11-14T09:55:17;47.83;;;26.13;;
13698;SDS011;6921;53.642;9.956;2022-11-14T09:57:20;45.67;;;25.90;;
13698;SDS011;6921;53.642;9.956;2022-11-14T09:59:24;47.70;;;26.70;;
13698;SDS011;6921;53.642;9.956;2022-11-14T10:01:31;48.23;;;27.47;;
13698;SDS011;6921;53.642;9.956;2022-11-14T10:03:43;52.27;;;27.37;;
13698;SDS011;6921;53.642;9.956;2022-11-14T10:05:54;47.10;;;25.57;;
13698;SDS011;6921;53.642;9.956;2022-11-14T10:08:08;47.57;;;26.57;;
13698;SDS011;6921;53.642;9.956;2022-11-14T10:10:16;47.73;;;25.73;;
13698;SDS011;6921;53.642;9.956;2022-11-14T10:12:25;52.23;;;28.50;;
13698;SDS011;6921;53.642;9.956;2022-11-14T10:14:40;48.13;;;27.70;;
13698;SDS011;6921;53.642;9.956;2022-11-14T10:16:46;48.37;;;26.60;;
13698;SDS011;6921;53.642;9.956;2022-11-14T10:19:01;48.73;;;28.03;;
13698;SDS011;6921;53.642;9.956;2022-11-14T10:21:08;45.13;;;26.70;;
13698;SDS011;6921;53.642;9.956;2022-11-14T10:23:18;47.43;;;26.03;;
13698;SDS011;6921;53.642;9.956;2022-11-14T10:25:24;44.70;;;25.30;;
13698;SDS011;6921;53.642;9.956;2022-11-14T10:27:30;42.83;;;24.80;;
13698;SDS011;6921;53.642;9.956;2022-11-14T10:29:39;45.27;;;24.57;;
13698;SDS011;6921;53.642;9.956;2022-11-14T10:31:45;45.00;;;24.93;;
13698;SDS011;6921;53.642;9.956;2022-11-14T10:33:51;42.90;;;24.90;;
13698;SDS011;6921;53.642;9.956;2022-11-14T10:35:58;40.47;;;23.83;;
13698;SDS011;6921;53.642;9.956;2022-11-14T10:38:06;64.93;;;38.00;;
13698;SDS011;6921;53.642;9.956;2022-11-14T10:40:14;55.67;;;29.93;;
13698;SDS011;6921;53.642;9.956;2022-11-14T10:42:19;40.97;;;25.93;;
13698;SDS011;6921;53.642;9.956;2022-11-14T10:44:26;52.83;;;31.87;;
13698;SDS011;6921;53.642;9.956;2022-11-14T10:46:33;49.63;;;28.00;;
13698;SDS011;6921;53.642;9.956;2022-11-14T10:48:39;50.07;;;29.00;;
13698;SDS011;6921;53.642;9.956;2022-11-14T10:50:45;55.93;;;31.40;;
13698;SDS011;6921;53.642;9.956;2022-11-14T10:52:53;46.77;;;27.77;;
13698;SDS011;6921;53.642;9.956;2022-11-14T10:54:59;48.97;;;27.93;;
13698;SDS011;6921;53.642;9.956;2022-11-14T10:57:12;43.53;;;25.70;;
13698;SDS011;6921;53.642;9.956;2022-11-14T10:59:17;45.83;;;25.47;;
13698;SDS011;6921;53.642;9.956;2022-11-14T11:01:34;45.23;;;26.73;;
13698;SDS011;6921;53.642;9.956;2022-11-14T11:03:40;45.47;;;27.83;;
13698;SDS011;6921;53.642;9.956;2022-11-14T11:05:45;41.20;;;24.83;;
13698;SDS011;6921;53.642;9.956;2022-11-14T11:07:50;40.87;;;24.93;;
13698;SDS011;6921;53.642;9.956;2022-11-14T11:10:33;48.40;;;29.97;;
13698;SDS011;6921;53.642;9.956;2022-11-14T11:12:54;55.53;;;31.37;;
13698;SDS011;6921;53.642;9.956;2022-11-14T11:15:07;56.17;;;34.60;;
13698;SDS011;6921;53.642;9.956;2022-11-14T11:17:16;48.50;;;29.80;;
13698;SDS011;6921;53.642;9.956;2022-11-14T11:19:22;52.20;;;30.23;;
13698;SDS011;6921;53.642;9.956;2022-11-14T11:21:25;43.60;;;25.23;;
13698;SDS011;6921;53.642;9.956;2022-11-14T11:23:29;44.57;;;24.47;;
13698;SDS011;6921;53.642;9.956;2022-11-14T11:25:34;40.67;;;23.87;;
13698;SDS011;6921;53.642;9.956;2022-11-14T11:27:37;39.93;;;25.33;;
13698;SDS011;6921;53.642;9.956;2022-11-14T11:29:41;39.20;;;24.37;;
13698;SDS011;6921;53.642;9.956;2022-11-14T11:31:51;39.53;;;23.97;;
13698;SDS011;6921;53.642;9.956;2022-11-14T11:33:54;36.50;;;24.50;;
13698;SDS011;6921;53.642;9.956;2022-11-14T11:36:05;36.33;;;22.80;;
13698;SDS011;6921;53.642;9.956;2022-11-14T11:38:09;34.80;;;21.47;;
13698;SDS011;6921;53.642;9.956;2022-11-14T11:40:17;31.57;;;21.53;;
13698;SDS011;6921;53.642;9.956;2022-11-14T11:42:24;36.03;;;21.93;;
13698;SDS011;6921;53.642;9.956;2022-11-14T11:44:54;31.47;;;22.53;;
13698;SDS011;6921;53.642;9.956;2022-11-14T11:46:59;36.30;;;24.73;;
13698;SDS011;6921;53.642;9.956;2022-11-14T11:49:04;32.83;;;22.17;;
13698;SDS011;6921;53.642;9.956;2022-11-14T11:51:13;34.07;;;22.50;;
13698;SDS011;6921;53.642;9.956;2022-11-14T11:53:20;33.33;;;22.10;;
13698;SDS011;6921;53.642;9.956;2022-11-14T11:55:25;31.92;;;21.77;;
13698;SDS011;6921;53.642;9.956;2022-11-14T11:57:32;33.00;;;21.80;;
13698;SDS011;6921;53.642;9.956;2022-11-14T11:59:37;30.97;;;22.20;;
13698;SDS011;6921;53.642;9.956;2022-11-14T12:01:43;31.50;;;20.73;;
13698;SDS011;6921;53.642;9.956;2022-11-14T12:03:47;34.10;;;22.70;;
13698;SDS011;6921;53.642;9.956;2022-11-14T12:05:53;33.93;;;21.33;;
13698;SDS011;6921;53.642;9.956;2022-11-14T12:08:00;33.83;;;22.87;;
13698;SDS011;6921;53.642;9.956;2022-11-14T12:10:06;30.20;;;21.07;;
13698;SDS011;6921;53.642;9.956;2022-11-14T12:12:15;34.77;;;22.50;;
13698;SDS011;6921;53.642;9.956;2022-11-14T12:16:58;39.27;;;24.43;;
13698;SDS011;6921;53.642;9.956;2022-11-14T12:19:14;37.77;;;24.20;;
13698;SDS011;6921;53.642;9.956;2022-11-14T12:21:26;39.93;;;26.33;;
13698;SDS011;6921;53.642;9.956;2022-11-14T12:23:45;51.83;;;31.70;;